sensor_id;sensor_type;location;lat;lon;timestamp;temperature;humidity
36374;DHT22;22399;51.346;12.372;2023-03-01T00:01:21;-0.50;96.50
36374;DHT22;22399;51.346;12.372;2023-03-01T00:03:49;-0.50;96.70
36374;DHT22;22399;51.346;12.372;2023-03-01T00:06:19;-0.50;96.80
36374;DHT22;22399;51.346;12.372;2023-03-01T00:08:48;-0.50;96.80
36374;DHT22;22399;51.346;12.372;2023-03-01T00:11:19;-0.50;96.70
36374;DHT22;22399;51.346;12.372;2023-03-01T00:13:51;-0.50;96.80
36374;DHT22;22399;51.346;12.372;2023-03-01T00:16:21;-0.50;96.80
36374;DHT22;22399;51.346;12.372;2023-03-01T00:18:49;-0.50;96.90
36374;DHT22;22399;51.346;12.372;2023-03-01T00:21:20;-0.50;96.90
36374;DHT22;22399;51.346;12.372;2023-03-01T00:23:49;-0.50;96.90
36374;DHT22;22399;51.346;12.372;2023-03-01T00:26:20;-0.50;96.80
36374;DHT22;22399;51.346;12.372;2023-03-01T00:28:51;-0.60;96.90
36374;DHT22;22399;51.346;12.372;2023-03-01T00:31:21;-0.60;97.00
36374;DHT22;22399;51.346;12.372;2023-03-01T00:33:54;-0.60;97.00
36374;DHT22;22399;51.346;12.372;2023-03-01T00:36:24;-0.60;97.00
36374;DHT22;22399;51.346;12.372;2023-03-01T00:38:54;-0.60;97.10
36374;DHT22;22399;51.346;12.372;2023-03-01T00:41:22;-0.70;97.10
36374;DHT22;22399;51.346;12.372;2023-03-01T00:43:52;-0.70;97.10
36374;DHT22;22399;51.346;12.372;2023-03-01T00:46:23;-0.70;97.10
36374;DHT22;22399;51.346;12.372;2023-03-01T00:48:53;-0.80;97.10
36374;DHT22;22399;51.346;12.372;2023-03-01T00:51:27;-0.80;97.10
36374;DHT22;22399;51.346;12.372;2023-03-01T00:53:59;-0.90;96.90
36374;DHT22;22399;51.346;12.372;2023-03-01T00:56:28;-1.00;97.00
36374;DHT22;22399;51.346;12.372;2023-03-01T00:58:59;-1.00;97.20
36374;DHT22;22399;51.346;12.372;2023-03-01T01:01:30;-1.00;97.30
36374;DHT22;22399;51.346;12.372;2023-03-01T01:04:01;-1.10;97.30
36374;DHT22;22399;51.346;12.372;2023-03-01T01:06:32;-1.10;97.50
36374;DHT22;22399;51.346;12.372;2023-03-01T01:09:01;-1.10;97.40
36374;DHT22;22399;51.346;12.372;2023-03-01T01:11:30;-1.10;97.50
36374;DHT22;22399;51.346;12.372;2023-03-01T01:14:00;-1.10;97.50
36374;DHT22;22399;51.346;12.372;2023-03-01T01:16:29;-1.10;97.60
36374;DHT22;22399;51.346;12.372;2023-03-01T01:18:58;-1.10;97.70
36374;DHT22;22399;51.346;12.372;2023-03-01T01:21:27;-1.10;97.70
36374;DHT22;22399;51.346;12.372;2023-03-01T01:23:56;-1.10;97.80
36374;DHT22;22399;51.346;12.372;2023-03-01T01:26:27;-1.20;97.50
36374;DHT22;22399;51.346;12.372;2023-03-01T01:28:56;-1.20;97.60
36374;DHT22;22399;51.346;12.372;2023-03-01T01:31:27;-1.20;97.60
36374;DHT22;22399;51.346;12.372;2023-03-01T01:33:57;-1.30;97.70
36374;DHT22;22399;51.346;12.372;2023-03-01T01:36:26;-1.30;97.90
36374;DHT22;22399;51.346;12.372;2023-03-01T01:38:55;-1.30;98.10
36374;DHT22;22399;51.346;12.372;2023-03-01T01:41:25;-1.30;98.00
36374;DHT22;22399;51.346;12.372;2023-03-01T01:44:16;-1.20;98.00
36374;DHT22;22399;51.346;12.372;2023-03-01T01:46:49;-1.20;98.10
36374;DHT22;22399;51.346;12.372;2023-03-01T01:49:27;-1.30;97.90
36374;DHT22;22399;51.346;12.372;2023-03-01T01:52:02;-1.30;98.10
36374;DHT22;22399;51.346;12.372;2023-03-01T01:54:39;-1.30;98.00
36374;DHT22;22399;51.346;12.372;2023-03-01T01:57:11;-1.30;98.00
36374;DHT22;22399;51.346;12.372;2023-03-01T01:59:42;-1.40;98.10
36374;DHT22;22399;51.346;12.372;2023-03-01T02:02:13;-1.40;97.90
36374;DHT22;22399;51.346;12.372;2023-03-01T02:04:42;-1.50;98.20
36374;DHT22;22399;51.346;12.372;2023-03-01T02:07:15;-1.40;98.30
36374;DHT22;22399;51.346;12.372;2023-03-01T02:09:46;-1.50;98.50
36374;DHT22;22399;51.346;12.372;2023-03-01T02:12:16;-1.50;98.20
36374;DHT22;22399;51.346;12.372;2023-03-01T02:14:45;-1.60;98.30
36374;DHT22;22399;51.346;12.372;2023-03-01T02:17:16;-1.60;98.20
36374;DHT22;22399;51.346;12.372;2023-03-01T02:19:56;-1.70;98.40
36374;DHT22;22399;51.346;12.372;2023-03-01T02:22:30;-1.70;98.50
36374;DHT22;22399;51.346;12.372;2023-03-01T02:25:07;-1.70;98.60
36374;DHT22;22399;51.346;12.372;2023-03-01T02:27:45;-1.70;98.70
36374;DHT22;22399;51.346;12.372;2023-03-01T02:30:18;-1.70;98.80
36374;DHT22;22399;51.346;12.372;2023-03-01T02:32:46;-1.70;98.80
36374;DHT22;22399;51.346;12.372;2023-03-01T02:35:17;-1.60;98.90
36374;DHT22;22399;51.346;12.372;2023-03-01T02:37:48;-1.70;98.80
36374;DHT22;22399;51.346;12.372;2023-03-01T02:40:17;-1.70;98.80
36374;DHT22;22399;51.346;12.372;2023-03-01T02:42:51;-1.70;98.90
36374;DHT22;22399;51.346;12.372;2023-03-01T02:45:24;-1.70;98.90
36374;DHT22;22399;51.346;12.372;2023-03-01T02:47:54;-1.70;99.00
36374;DHT22;22399;51.346;12.372;2023-03-01T02:50:42;-1.70;99.10
36374;DHT22;22399;51.346;12.372;2023-03-01T02:53:16;-1.80;99.00
36374;DHT22;22399;51.346;12.372;2023-03-01T02:55:48;-1.80;99.20
36374;DHT22;22399;51.346;12.372;2023-03-01T02:58:17;-1.80;99.20
36374;DHT22;22399;51.346;12.372;2023-03-01T03:00:47;-1.90;99.10
36374;DHT22;22399;51.346;12.372;2023-03-01T03:03:18;-1.90;99.20
36374;DHT22;22399;51.346;12.372;2023-03-01T03:05:47;-1.90;99.40
36374;DHT22;22399;51.346;12.372;2023-03-01T03:08:16;-1.90;99.50
36374;DHT22;22399;51.346;12.372;2023-03-01T03:10:52;-1.90;99.50
36374;DHT22;22399;51.346;12.372;2023-03-01T03:13:21;-1.90;99.50
36374;DHT22;22399;51.346;12.372;2023-03-01T03:15:57;-2.00;99.50
36374;DHT22;22399;51.346;12.372;2023-03-01T03:18:25;-2.00;99.50
36374;DHT22;22399;51.346;12.372;2023-03-01T03:20:54;-2.00;99.70
36374;DHT22;22399;51.346;12.372;2023-03-01T03:23:22;-2.00;99.80
36374;DHT22;22399;51.346;12.372;2023-03-01T03:25:51;-2.00;99.70
36374;DHT22;22399;51.346;12.372;2023-03-01T03:28:20;-2.00;99.70
36374;DHT22;22399;51.346;12.372;2023-03-01T03:30:48;-2.00;99.90
36374;DHT22;22399;51.346;12.372;2023-03-01T03:33:18;-2.10;99.80
36374;DHT22;22399;51.346;12.372;2023-03-01T03:35:48;-2.10;99.80
36374;DHT22;22399;51.346;12.372;2023-03-01T03:38:18;-2.20;99.90
36374;DHT22;22399;51.346;12.372;2023-03-01T03:40:50;-2.20;99.90
36374;DHT22;22399;51.346;12.372;2023-03-01T03:43:20;-2.20;99.90
36374;DHT22;22399;51.346;12.372;2023-03-01T03:45:49;-2.20;99.90
36374;DHT22;22399;51.346;12.372;2023-03-01T03:48:20;-2.20;99.90
36374;DHT22;22399;51.346;12.372;2023-03-01T03:50:50;-2.20;99.90
36374;DHT22;22399;51.346;12.372;2023-03-01T03:53:19;-2.20;99.90
36374;DHT22;22399;51.346;12.372;2023-03-01T03:55:48;-2.20;99.90
36374;DHT22;22399;51.346;12.372;2023-03-01T03:58:21;-2.30;99.90
36374;DHT22;22399;51.346;12.372;2023-03-01T04:00:51;-2.30;99.90
36374;DHT22;22399;51.346;12.372;2023-03-01T04:03:22;-2.30;99.90
36374;DHT22;22399;51.346;12.372;2023-03-01T04:05:51;-2.30;99.90
36374;DHT22;22399;51.346;12.372;2023-03-01T04:08:20;-2.30;99.90
36374;DHT22;22399;51.346;12.372;2023-03-01T04:10:49;-2.30;99.90
36374;DHT22;22399;51.346;12.372;2023-03-01T04:13:20;-2.30;99.90
36374;DHT22;22399;51.346;12.372;2023-03-01T04:15:49;-2.30;99.90
36374;DHT22;22399;51.346;12.372;2023-03-01T04:18:21;-2.20;99.90
36374;DHT22;22399;51.346;12.372;2023-03-01T04:20:50;-2.20;99.90
36374;DHT22;22399;51.346;12.372;2023-03-01T04:23:22;-2.20;99.90
36374;DHT22;22399;51.346;12.372;2023-03-01T04:25:52;-2.20;99.90
36374;DHT22;22399;51.346;12.372;2023-03-01T04:28:22;-2.20;99.90
36374;DHT22;22399;51.346;12.372;2023-03-01T04:30:52;-2.30;99.90
36374;DHT22;22399;51.346;12.372;2023-03-01T04:33:22;-2.30;99.90
36374;DHT22;22399;51.346;12.372;2023-03-01T04:35:51;-2.40;99.90
36374;DHT22;22399;51.346;12.372;2023-03-01T04:38:20;-2.40;99.90
36374;DHT22;22399;51.346;12.372;2023-03-01T04:40:48;-2.50;99.90
36374;DHT22;22399;51.346;12.372;2023-03-01T04:43:17;-2.40;99.90
36374;DHT22;22399;51.346;12.372;2023-03-01T04:45:45;-2.40;99.90
36374;DHT22;22399;51.346;12.372;2023-03-01T04:48:14;-2.40;99.90
36374;DHT22;22399;51.346;12.372;2023-03-01T04:50:44;-2.40;99.90
36374;DHT22;22399;51.346;12.372;2023-03-01T04:53:12;-2.40;99.90
36374;DHT22;22399;51.346;12.372;2023-03-01T04:55:40;-2.40;99.90
36374;DHT22;22399;51.346;12.372;2023-03-01T04:58:09;-2.40;99.90
36374;DHT22;22399;51.346;12.372;2023-03-01T05:00:37;-2.50;99.90
36374;DHT22;22399;51.346;12.372;2023-03-01T05:03:06;-2.50;99.90
36374;DHT22;22399;51.346;12.372;2023-03-01T05:05:36;-2.60;99.90
36374;DHT22;22399;51.346;12.372;2023-03-01T05:08:07;-2.60;99.90
36374;DHT22;22399;51.346;12.372;2023-03-01T05:10:36;-2.60;99.90
36374;DHT22;22399;51.346;12.372;2023-03-01T05:13:06;-2.60;99.90
36374;DHT22;22399;51.346;12.372;2023-03-01T05:15:34;-2.70;99.90
36374;DHT22;22399;51.346;12.372;2023-03-01T05:18:03;-2.70;99.90
36374;DHT22;22399;51.346;12.372;2023-03-01T05:20:34;-2.70;99.90
36374;DHT22;22399;51.346;12.372;2023-03-01T05:23:04;-2.70;99.90
36374;DHT22;22399;51.346;12.372;2023-03-01T05:25:34;-2.70;99.90
36374;DHT22;22399;51.346;12.372;2023-03-01T05:28:10;-2.80;99.90
36374;DHT22;22399;51.346;12.372;2023-03-01T05:30:40;-2.80;99.90
36374;DHT22;22399;51.346;12.372;2023-03-01T05:33:09;-2.80;99.90
36374;DHT22;22399;51.346;12.372;2023-03-01T05:35:41;-2.80;99.90
36374;DHT22;22399;51.346;12.372;2023-03-01T05:38:10;-2.90;99.90
36374;DHT22;22399;51.346;12.372;2023-03-01T05:40:42;-2.90;99.90
36374;DHT22;22399;51.346;12.372;2023-03-01T05:43:11;-2.90;99.90
36374;DHT22;22399;51.346;12.372;2023-03-01T05:45:40;-2.90;99.90
36374;DHT22;22399;51.346;12.372;2023-03-01T05:48:10;-2.90;99.90
36374;DHT22;22399;51.346;12.372;2023-03-01T05:50:40;-2.80;99.90
36374;DHT22;22399;51.346;12.372;2023-03-01T05:53:11;-2.80;99.90
36374;DHT22;22399;51.346;12.372;2023-03-01T05:55:42;-2.80;99.90
36374;DHT22;22399;51.346;12.372;2023-03-01T05:58:12;-2.80;99.90
36374;DHT22;22399;51.346;12.372;2023-03-01T06:00:43;-2.80;99.90
36374;DHT22;22399;51.346;12.372;2023-03-01T06:03:13;-2.80;99.90
36374;DHT22;22399;51.346;12.372;2023-03-01T06:05:42;-2.80;99.90
36374;DHT22;22399;51.346;12.372;2023-03-01T06:08:11;-2.80;99.90
36374;DHT22;22399;51.346;12.372;2023-03-01T06:10:41;-2.80;99.90
36374;DHT22;22399;51.346;12.372;2023-03-01T06:13:09;-2.80;99.90
36374;DHT22;22399;51.346;12.372;2023-03-01T06:15:38;-2.80;99.90
36374;DHT22;22399;51.346;12.372;2023-03-01T06:18:06;-2.80;99.90
36374;DHT22;22399;51.346;12.372;2023-03-01T06:20:34;-2.80;99.90
36374;DHT22;22399;51.346;12.372;2023-03-01T06:23:03;-2.80;99.90
36374;DHT22;22399;51.346;12.372;2023-03-01T06:25:31;-2.80;99.90
36374;DHT22;22399;51.346;12.372;2023-03-01T06:28:00;-2.70;99.90
36374;DHT22;22399;51.346;12.372;2023-03-01T06:30:29;-2.70;99.90
36374;DHT22;22399;51.346;12.372;2023-03-01T06:32:57;-2.70;99.90
36374;DHT22;22399;51.346;12.372;2023-03-01T06:35:28;-2.60;99.90
36374;DHT22;22399;51.346;12.372;2023-03-01T06:37:59;-2.60;99.90
36374;DHT22;22399;51.346;12.372;2023-03-01T06:40:29;-2.60;99.90
36374;DHT22;22399;51.346;12.372;2023-03-01T06:42:59;-2.50;99.90
36374;DHT22;22399;51.346;12.372;2023-03-01T06:45:28;-2.50;99.90
36374;DHT22;22399;51.346;12.372;2023-03-01T06:48:03;-2.40;99.90
36374;DHT22;22399;51.346;12.372;2023-03-01T06:50:32;-2.30;99.90
36374;DHT22;22399;51.346;12.372;2023-03-01T06:53:01;-2.20;99.90
36374;DHT22;22399;51.346;12.372;2023-03-01T06:55:30;-2.10;99.90
36374;DHT22;22399;51.346;12.372;2023-03-01T06:58:00;-2.00;99.90
36374;DHT22;22399;51.346;12.372;2023-03-01T07:00:29;-1.90;99.90
36374;DHT22;22399;51.346;12.372;2023-03-01T07:02:59;-1.80;99.90
36374;DHT22;22399;51.346;12.372;2023-03-01T07:05:29;-1.60;99.90
36374;DHT22;22399;51.346;12.372;2023-03-01T07:07:57;-1.50;99.90
36374;DHT22;22399;51.346;12.372;2023-03-01T07:10:25;-1.30;99.90
36374;DHT22;22399;51.346;12.372;2023-03-01T07:12:55;-1.20;99.90
36374;DHT22;22399;51.346;12.372;2023-03-01T07:15:26;-1.10;99.90
36374;DHT22;22399;51.346;12.372;2023-03-01T07:17:55;-0.80;99.90
36374;DHT22;22399;51.346;12.372;2023-03-01T07:20:24;-0.40;99.90
36374;DHT22;22399;51.346;12.372;2023-03-01T07:22:53;0.10;99.90
36374;DHT22;22399;51.346;12.372;2023-03-01T07:25:22;0.50;99.90
36374;DHT22;22399;51.346;12.372;2023-03-01T07:27:51;0.90;99.90
36374;DHT22;22399;51.346;12.372;2023-03-01T07:30:20;1.20;99.90
36374;DHT22;22399;51.346;12.372;2023-03-01T07:32:50;1.40;99.90
36374;DHT22;22399;51.346;12.372;2023-03-01T07:35:21;1.50;99.90
36374;DHT22;22399;51.346;12.372;2023-03-01T07:37:49;1.80;99.90
36374;DHT22;22399;51.346;12.372;2023-03-01T07:40:18;2.00;99.90
36374;DHT22;22399;51.346;12.372;2023-03-01T07:42:47;2.10;99.90
36374;DHT22;22399;51.346;12.372;2023-03-01T07:45:15;2.20;99.90
36374;DHT22;22399;51.346;12.372;2023-03-01T07:47:44;2.60;99.90
36374;DHT22;22399;51.346;12.372;2023-03-01T07:50:13;2.70;99.90
36374;DHT22;22399;51.346;12.372;2023-03-01T07:52:44;2.80;99.90
36374;DHT22;22399;51.346;12.372;2023-03-01T07:55:13;3.00;99.90
36374;DHT22;22399;51.346;12.372;2023-03-01T07:57:42;3.30;99.90
36374;DHT22;22399;51.346;12.372;2023-03-01T08:00:11;3.50;99.90
36374;DHT22;22399;51.346;12.372;2023-03-01T08:02:40;3.70;99.90
36374;DHT22;22399;51.346;12.372;2023-03-01T08:05:09;4.20;99.90
36374;DHT22;22399;51.346;12.372;2023-03-01T08:07:39;4.70;99.90
36374;DHT22;22399;51.346;12.372;2023-03-01T08:10:08;5.20;99.90
36374;DHT22;22399;51.346;12.372;2023-03-01T08:12:36;5.60;99.90
36374;DHT22;22399;51.346;12.372;2023-03-01T08:15:06;5.80;99.90
36374;DHT22;22399;51.346;12.372;2023-03-01T08:17:34;6.10;99.90
36374;DHT22;22399;51.346;12.372;2023-03-01T08:20:03;6.30;99.90
36374;DHT22;22399;51.346;12.372;2023-03-01T08:22:33;6.30;99.90
36374;DHT22;22399;51.346;12.372;2023-03-01T08:25:03;6.50;99.90
36374;DHT22;22399;51.346;12.372;2023-03-01T08:27:31;6.50;99.90
36374;DHT22;22399;51.346;12.372;2023-03-01T08:30:00;6.10;99.90
36374;DHT22;22399;51.346;12.372;2023-03-01T08:32:28;5.90;99.90
36374;DHT22;22399;51.346;12.372;2023-03-01T08:34:57;5.80;99.90
36374;DHT22;22399;51.346;12.372;2023-03-01T08:37:25;5.70;99.90
36374;DHT22;22399;51.346;12.372;2023-03-01T08:39:54;5.80;99.90
36374;DHT22;22399;51.346;12.372;2023-03-01T08:42:24;6.20;99.90
36374;DHT22;22399;51.346;12.372;2023-03-01T08:44:52;6.60;99.90
36374;DHT22;22399;51.346;12.372;2023-03-01T08:47:21;6.90;99.90
36374;DHT22;22399;51.346;12.372;2023-03-01T08:49:50;6.80;99.90
36374;DHT22;22399;51.346;12.372;2023-03-01T08:52:19;6.70;99.90
36374;DHT22;22399;51.346;12.372;2023-03-01T08:54:47;6.80;99.90
36374;DHT22;22399;51.346;12.372;2023-03-01T08:57:15;6.90;99.90
36374;DHT22;22399;51.346;12.372;2023-03-01T08:59:45;7.10;99.90
36374;DHT22;22399;51.346;12.372;2023-03-01T09:02:15;7.20;99.90
36374;DHT22;22399;51.346;12.372;2023-03-01T09:04:44;7.30;99.90
36374;DHT22;22399;51.346;12.372;2023-03-01T09:07:12;7.20;99.90
36374;DHT22;22399;51.346;12.372;2023-03-01T09:09:41;6.90;99.90
36374;DHT22;22399;51.346;12.372;2023-03-01T09:12:09;6.90;99.90
36374;DHT22;22399;51.346;12.372;2023-03-01T09:14:38;6.90;99.90
36374;DHT22;22399;51.346;12.372;2023-03-01T09:17:09;7.30;99.90
36374;DHT22;22399;51.346;12.372;2023-03-01T09:19:38;7.30;99.90
36374;DHT22;22399;51.346;12.372;2023-03-01T09:22:07;7.50;99.90
36374;DHT22;22399;51.346;12.372;2023-03-01T09:24:35;7.70;99.90
36374;DHT22;22399;51.346;12.372;2023-03-01T09:27:04;7.60;99.90
36374;DHT22;22399;51.346;12.372;2023-03-01T09:29:37;7.20;99.00
36374;DHT22;22399;51.346;12.372;2023-03-01T09:32:07;6.90;99.90
36374;DHT22;22399;51.346;12.372;2023-03-01T09:34:37;6.70;99.90
36374;DHT22;22399;51.346;12.372;2023-03-01T09:37:19;6.50;99.90
36374;DHT22;22399;51.346;12.372;2023-03-01T09:39:48;6.30;99.90
36374;DHT22;22399;51.346;12.372;2023-03-01T09:42:16;6.50;99.90
36374;DHT22;22399;51.346;12.372;2023-03-01T09:44:49;6.70;99.90
36374;DHT22;22399;51.346;12.372;2023-03-01T09:47:21;6.80;99.90
36374;DHT22;22399;51.346;12.372;2023-03-01T09:50:00;7.20;99.90
36374;DHT22;22399;51.346;12.372;2023-03-01T09:52:35;7.20;99.90
36374;DHT22;22399;51.346;12.372;2023-03-01T09:55:10;7.30;99.90
36374;DHT22;22399;51.346;12.372;2023-03-01T09:57:46;7.50;99.90
36374;DHT22;22399;51.346;12.372;2023-03-01T10:00:36;7.50;99.90
36374;DHT22;22399;51.346;12.372;2023-03-01T10:03:13;7.20;99.90
36374;DHT22;22399;51.346;12.372;2023-03-01T10:05:51;7.10;99.90
36374;DHT22;22399;51.346;12.372;2023-03-01T10:08:36;7.00;99.90
36374;DHT22;22399;51.346;12.372;2023-03-01T10:11:19;6.90;99.90
36374;DHT22;22399;51.346;12.372;2023-03-01T10:13:56;7.10;99.90
36374;DHT22;22399;51.346;12.372;2023-03-01T10:16:33;7.20;99.90
36374;DHT22;22399;51.346;12.372;2023-03-01T10:19:03;7.20;99.90
36374;DHT22;22399;51.346;12.372;2023-03-01T10:21:40;7.80;99.90
36374;DHT22;22399;51.346;12.372;2023-03-01T10:24:12;7.80;99.90
36374;DHT22;22399;51.346;12.372;2023-03-01T10:26:48;7.90;99.90
36374;DHT22;22399;51.346;12.372;2023-03-01T10:29:21;8.30;99.90
36374;DHT22;22399;51.346;12.372;2023-03-01T10:31:53;8.60;99.90
36374;DHT22;22399;51.346;12.372;2023-03-01T10:34:27;8.70;99.90
36374;DHT22;22399;51.346;12.372;2023-03-01T10:36:58;9.10;99.90
36374;DHT22;22399;51.346;12.372;2023-03-01T10:39:29;9.60;99.90
36374;DHT22;22399;51.346;12.372;2023-03-01T10:42:02;9.10;99.50
36374;DHT22;22399;51.346;12.372;2023-03-01T10:44:43;8.70;99.90
36374;DHT22;22399;51.346;12.372;2023-03-01T10:47:18;8.40;99.90
36374;DHT22;22399;51.346;12.372;2023-03-01T10:49:57;8.40;99.90
36374;DHT22;22399;51.346;12.372;2023-03-01T10:52:30;8.40;99.90
36374;DHT22;22399;51.346;12.372;2023-03-01T10:55:03;8.50;99.90
36374;DHT22;22399;51.346;12.372;2023-03-01T10:57:35;8.90;99.90
36374;DHT22;22399;51.346;12.372;2023-03-01T11:00:30;9.20;99.90
36374;DHT22;22399;51.346;12.372;2023-03-01T11:03:09;9.20;99.90
36374;DHT22;22399;51.346;12.372;2023-03-01T11:05:58;9.40;99.60
36374;DHT22;22399;51.346;12.372;2023-03-01T11:08:40;9.30;98.50
36374;DHT22;22399;51.346;12.372;2023-03-01T11:11:29;9.30;98.20
36374;DHT22;22399;51.346;12.372;2023-03-01T11:14:03;8.90;98.60
36374;DHT22;22399;51.346;12.372;2023-03-01T11:16:59;9.10;98.40
36374;DHT22;22399;51.346;12.372;2023-03-01T11:19:29;9.30;97.70
36374;DHT22;22399;51.346;12.372;2023-03-01T11:22:02;8.90;96.80
36374;DHT22;22399;51.346;12.372;2023-03-01T11:24:37;8.80;98.50
36374;DHT22;22399;51.346;12.372;2023-03-01T11:27:18;9.10;98.60
36374;DHT22;22399;51.346;12.372;2023-03-01T11:29:52;9.00;97.20
36374;DHT22;22399;51.346;12.372;2023-03-01T11:32:25;8.50;97.10
36374;DHT22;22399;51.346;12.372;2023-03-01T11:34:57;8.60;98.00
36374;DHT22;22399;51.346;12.372;2023-03-01T11:37:40;8.60;97.90
36374;DHT22;22399;51.346;12.372;2023-03-01T11:40:17;8.20;97.30
36374;DHT22;22399;51.346;12.372;2023-03-01T11:42:58;8.20;98.10
36374;DHT22;22399;51.346;12.372;2023-03-01T11:45:34;8.40;97.70
36374;DHT22;22399;51.346;12.372;2023-03-01T11:48:17;8.30;96.90
36374;DHT22;22399;51.346;12.372;2023-03-01T11:50:57;8.20;97.60
36374;DHT22;22399;51.346;12.372;2023-03-01T11:53:37;8.00;96.90
36374;DHT22;22399;51.346;12.372;2023-03-01T11:56:20;8.10;97.30
36374;DHT22;22399;51.346;12.372;2023-03-01T12:02:23;8.10;96.80
36374;DHT22;22399;51.346;12.372;2023-03-01T12:05:17;8.20;96.40
36374;DHT22;22399;51.346;12.372;2023-03-01T12:07:53;8.30;96.30
36374;DHT22;22399;51.346;12.372;2023-03-01T12:10:27;8.40;95.20
36374;DHT22;22399;51.346;12.372;2023-03-01T12:13:18;8.50;95.40
36374;DHT22;22399;51.346;12.372;2023-03-01T12:16:13;8.70;95.50
36374;DHT22;22399;51.346;12.372;2023-03-01T12:19:08;8.60;95.20
36374;DHT22;22399;51.346;12.372;2023-03-01T12:21:50;8.50;94.60
36374;DHT22;22399;51.346;12.372;2023-03-01T12:27:33;8.40;94.60
36374;DHT22;22399;51.346;12.372;2023-03-01T12:30:21;8.30;94.40
36374;DHT22;22399;51.346;12.372;2023-03-01T12:33:00;8.30;94.80
36374;DHT22;22399;51.346;12.372;2023-03-01T12:35:45;8.30;94.70
36374;DHT22;22399;51.346;12.372;2023-03-01T12:38:31;8.30;94.70
36374;DHT22;22399;51.346;12.372;2023-03-01T12:44:07;9.00;94.50
36374;DHT22;22399;51.346;12.372;2023-03-01T12:46:52;8.90;94.10
36374;DHT22;22399;51.346;12.372;2023-03-01T12:49:28;9.20;93.90
36374;DHT22;22399;51.346;12.372;2023-03-01T12:52:00;9.10;93.60
36374;DHT22;22399;51.346;12.372;2023-03-01T12:54:31;9.10;93.70
36374;DHT22;22399;51.346;12.372;2023-03-01T12:57:06;9.30;93.70
36374;DHT22;22399;51.346;12.372;2023-03-01T12:59:41;9.50;93.80
36374;DHT22;22399;51.346;12.372;2023-03-01T13:02:21;9.70;94.00
36374;DHT22;22399;51.346;12.372;2023-03-01T13:05:01;9.90;93.20
36374;DHT22;22399;51.346;12.372;2023-03-01T13:07:38;9.50;92.90
36374;DHT22;22399;51.346;12.372;2023-03-01T13:10:21;9.70;92.80
36374;DHT22;22399;51.346;12.372;2023-03-01T13:13:01;9.60;92.60
36374;DHT22;22399;51.346;12.372;2023-03-01T13:15:32;9.60;92.10
36374;DHT22;22399;51.346;12.372;2023-03-01T13:18:03;9.60;91.70
36374;DHT22;22399;51.346;12.372;2023-03-01T13:20:46;9.70;91.50
36374;DHT22;22399;51.346;12.372;2023-03-01T13:23:25;9.30;91.30
36374;DHT22;22399;51.346;12.372;2023-03-01T13:26:09;9.10;91.30
36374;DHT22;22399;51.346;12.372;2023-03-01T13:28:53;9.20;91.60
36374;DHT22;22399;51.346;12.372;2023-03-01T13:34:46;9.30;90.60
36374;DHT22;22399;51.346;12.372;2023-03-01T13:37:24;9.40;90.20
36374;DHT22;22399;51.346;12.372;2023-03-01T13:39:58;9.10;89.30
36374;DHT22;22399;51.346;12.372;2023-03-01T13:45:38;8.90;89.80
36374;DHT22;22399;51.346;12.372;2023-03-01T13:48:10;9.20;89.20
36374;DHT22;22399;51.346;12.372;2023-03-01T13:50:47;9.40;88.10
36374;DHT22;22399;51.346;12.372;2023-03-01T13:53:19;9.40;87.70
36374;DHT22;22399;51.346;12.372;2023-03-01T13:55:49;9.40;86.60
36374;DHT22;22399;51.346;12.372;2023-03-01T13:58:22;9.20;86.70
36374;DHT22;22399;51.346;12.372;2023-03-01T14:00:56;9.10;86.30
36374;DHT22;22399;51.346;12.372;2023-03-01T14:03:26;9.10;86.20
36374;DHT22;22399;51.346;12.372;2023-03-01T14:06:05;9.10;85.70
36374;DHT22;22399;51.346;12.372;2023-03-01T14:08:43;8.90;85.70
36374;DHT22;22399;51.346;12.372;2023-03-01T14:11:35;9.00;84.80
36374;DHT22;22399;51.346;12.372;2023-03-01T14:14:32;9.20;84.40
36374;DHT22;22399;51.346;12.372;2023-03-01T14:17:20;9.50;83.50
36374;DHT22;22399;51.346;12.372;2023-03-01T14:19:56;9.90;81.90
36374;DHT22;22399;51.346;12.372;2023-03-01T14:22:28;9.60;81.20
36374;DHT22;22399;51.346;12.372;2023-03-01T14:24:59;9.30;81.50
36374;DHT22;22399;51.346;12.372;2023-03-01T14:27:29;9.30;81.20
36374;DHT22;22399;51.346;12.372;2023-03-01T14:30:02;9.20;81.10
36374;DHT22;22399;51.346;12.372;2023-03-01T14:32:32;9.30;80.60
36374;DHT22;22399;51.346;12.372;2023-03-01T14:35:00;9.40;79.80
36374;DHT22;22399;51.346;12.372;2023-03-01T14:37:32;9.30;79.60
36374;DHT22;22399;51.346;12.372;2023-03-01T14:40:21;9.10;79.70
36374;DHT22;22399;51.346;12.372;2023-03-01T14:42:50;9.30;79.50
36374;DHT22;22399;51.346;12.372;2023-03-01T14:45:19;9.50;78.50
36374;DHT22;22399;51.346;12.372;2023-03-01T14:47:48;9.60;77.90
36374;DHT22;22399;51.346;12.372;2023-03-01T14:50:22;9.50;77.40
36374;DHT22;22399;51.346;12.372;2023-03-01T14:52:54;9.30;77.70
36374;DHT22;22399;51.346;12.372;2023-03-01T14:55:28;9.40;77.00
36374;DHT22;22399;51.346;12.372;2023-03-01T14:57:58;9.30;76.70
36374;DHT22;22399;51.346;12.372;2023-03-01T15:00:30;9.30;76.90
36374;DHT22;22399;51.346;12.372;2023-03-01T15:03:04;9.20;76.50
36374;DHT22;22399;51.346;12.372;2023-03-01T15:05:37;9.20;76.60
36374;DHT22;22399;51.346;12.372;2023-03-01T15:08:07;8.70;77.50
36374;DHT22;22399;51.346;12.372;2023-03-01T15:10:36;8.30;78.80
36374;DHT22;22399;51.346;12.372;2023-03-01T15:13:14;8.10;79.90
36374;DHT22;22399;51.346;12.372;2023-03-01T15:15:49;7.80;80.80
36374;DHT22;22399;51.346;12.372;2023-03-01T15:18:21;7.60;81.00
36374;DHT22;22399;51.346;12.372;2023-03-01T15:20:51;7.50;81.50
36374;DHT22;22399;51.346;12.372;2023-03-01T15:23:26;7.40;81.40
36374;DHT22;22399;51.346;12.372;2023-03-01T15:25:56;7.20;81.70
36374;DHT22;22399;51.346;12.372;2023-03-01T15:28:27;7.10;81.50
36374;DHT22;22399;51.346;12.372;2023-03-01T15:30:58;7.00;81.90
36374;DHT22;22399;51.346;12.372;2023-03-01T15:33:36;6.80;81.90
36374;DHT22;22399;51.346;12.372;2023-03-01T15:36:30;6.60;81.80
36374;DHT22;22399;51.346;12.372;2023-03-01T15:39:00;6.50;81.80
36374;DHT22;22399;51.346;12.372;2023-03-01T15:41:31;6.40;81.40
36374;DHT22;22399;51.346;12.372;2023-03-01T15:44:00;6.40;81.30
36374;DHT22;22399;51.346;12.372;2023-03-01T15:46:45;6.30;81.30
36374;DHT22;22399;51.346;12.372;2023-03-01T15:49:30;6.20;80.90
36374;DHT22;22399;51.346;12.372;2023-03-01T15:52:03;6.20;80.80
36374;DHT22;22399;51.346;12.372;2023-03-01T15:54:33;6.10;80.30
36374;DHT22;22399;51.346;12.372;2023-03-01T15:57:01;6.10;80.50
36374;DHT22;22399;51.346;12.372;2023-03-01T15:59:30;6.10;80.60
36374;DHT22;22399;51.346;12.372;2023-03-01T16:01:58;6.00;80.60
36374;DHT22;22399;51.346;12.372;2023-03-01T16:04:27;6.00;80.80
36374;DHT22;22399;51.346;12.372;2023-03-01T16:06:56;5.90;80.60
36374;DHT22;22399;51.346;12.372;2023-03-01T16:09:25;5.90;80.60
36374;DHT22;22399;51.346;12.372;2023-03-01T16:11:55;5.80;80.20
36374;DHT22;22399;51.346;12.372;2023-03-01T16:14:24;5.80;80.20